Time;durP1;ratioP1;P1;durP2;ratioP2;P2;SDS_P1;SDS_P2;PMS_P1;PMS_P2;Temp;Humidity;BMP_temperature;BMP_pressure;BME280_temperature;BME280_humidity;BME280_pressure;Samples;Min_cycle;Max_cycle;Signal;HPM_P1;HPM_P2
2022/04/30 00:01:27;;;;;;;5.88;2.42;;;;;;;5.07;65.83;100209.63;4994219;28;20061;-80
2022/04/30 00:03:59;;;;;;;18.25;3.75;;;;;;;5.16;66.10;100207.28;4994452;28;20042;-80
2022/04/30 00:06:29;;;;;;;7.63;3.70;;;;;;;5.15;66.03;100211.06;4993105;28;20050;-81
2022/04/30 00:09:00;;;;;;;7.68;3.92;;;;;;;5.22;66.26;100211.66;4992897;28;20055;-81
2022/04/30 00:11:26;;;;;;;;;;;;;;;5.17;65.98;100206.22;4995406;28;20499;-80
2022/04/30 00:13:53;;;;;;;7.03;3.83;;;;;;;4.95;66.52;100208.94;4992446;28;19918;-80
2022/04/30 00:16:20;;;;;;;7.05;3.92;;;;;;;4.94;66.61;100221.69;4992607;28;20422;-81
2022/04/30 00:18:46;;;;;;;6.35;3.80;;;;;;;4.79;66.72;100207.13;4996736;28;20034;-80
2022/04/30 00:21:12;;;;;;;5.70;3.53;;;;;;;4.77;66.57;100214.69;4994386;28;20046;-82
2022/04/30 00:23:39;;;;;;;8.02;3.47;;;;;;;4.85;66.40;100220.47;4994311;28;20046;-80
2022/04/30 00:26:05;;;;;;;6.80;3.90;;;;;;;4.82;66.12;100214.75;4995698;28;20490;-80
2022/04/30 00:28:32;;;;;;;9.60;3.78;;;;;;;4.77;66.52;100225.50;4995257;28;20091;-79
2022/04/30 00:31:02;;;;;;;5.95;3.28;;;;;;;4.69;66.54;100215.94;4995761;28;20046;-82
2022/04/30 00:33:30;;;;;;;8.68;3.45;;;;;;;4.74;66.06;100215.22;4994757;28;20678;-80
2022/04/30 00:35:56;;;;;;;6.65;3.25;;;;;;;4.77;65.96;100220.09;4994637;28;20050;-81
2022/04/30 00:38:23;;;;;;;7.80;3.30;;;;;;;4.76;66.62;100226.59;4995445;28;20462;-80
2022/04/30 00:40:49;;;;;;;7.30;3.58;;;;;;;4.66;66.31;100230.00;4996708;28;20046;-80
2022/04/30 00:43:15;;;;;;;6.28;3.80;;;;;;;4.58;66.61;100212.31;4997463;28;20043;-81
2022/04/30 00:45:47;;;;;;;7.03;3.40;;;;;;;4.63;66.13;100225.06;4998337;28;20042;-81
2022/04/30 00:48:13;;;;;;;8.45;3.85;;;;;;;4.53;66.55;100219.53;4997117;28;20657;-80
2022/04/30 00:50:41;;;;;;;6.22;3.70;;;;;;;4.58;66.35;100233.16;4995282;28;20042;-80
2022/04/30 00:53:08;;;;;;;6.75;3.78;;;;;;;4.48;66.96;100214.88;4995199;28;20049;-79
2022/04/30 00:55:37;;;;;;;8.80;3.50;;;;;;;4.59;66.47;100234.78;4995421;28;20486;-80
2022/04/30 00:58:05;;;;;;;5.40;3.50;;;;;;;4.59;66.12;100221.25;4995909;28;20105;-81
2022/04/30 01:00:33;;;;;;;7.35;3.95;;;;;;;4.69;66.16;100237.63;4995774;28;20085;-80
2022/04/30 01:03:12;;;;;;;6.30;3.90;;;;;;;4.67;65.60;100231.66;4995176;28;20042;-81
2022/04/30 01:06:09;;;;;;;6.60;3.40;;;;;;;4.52;65.86;100224.13;4973792;28;20051;-81
2022/04/30 01:08:37;;;;;;;5.95;3.40;;;;;;;4.64;65.82;100235.66;4976537;28;20074;-80
2022/04/30 01:11:04;;;;;;;6.28;3.47;;;;;;;4.75;65.67;100228.50;4976754;28;20043;-83
2022/04/30 01:13:35;;;;;;;6.43;3.67;;;;;;;4.85;65.11;100230.50;4973076;28;20091;-80
2022/04/30 01:16:03;;;;;;;10.25;3.80;;;;;;;4.71;65.71;100219.22;4973790;28;20508;-82
2022/04/30 01:18:30;;;;;;;9.40;3.80;;;;;;;4.75;65.47;100224.97;4972931;28;20043;-80
2022/04/30 01:21:04;;;;;;;8.60;3.65;;;;;;;4.66;66.10;100228.09;4973145;28;20555;-81
2022/04/30 01:23:32;;;;;;;9.48;3.83;;;;;;;4.69;65.67;100219.47;4975343;28;20095;-82
2022/04/30 01:26:01;;;;;;;7.55;3.95;;;;;;;4.80;65.72;100233.97;4975090;28;20047;-80
2022/04/30 01:28:29;;;;;;;9.57;4.38;;;;;;;4.67;66.04;100231.66;4974735;28;20042;-81
2022/04/30 01:30:55;;;;;;;10.60;4.47;;;;;;;4.64;66.08;100234.88;4973639;28;20186;-81
2022/04/30 01:39:00;;;;;;;6.78;4.35;;;;;;;4.82;65.11;100236.44;4951973;28;20051;-82
2022/04/30 01:41:26;;;;;;;9.48;4.75;;;;;;;4.71;65.47;100224.66;4974001;28;20042;-82
2022/04/30 01:43:53;;;;;;;7.90;4.80;;;;;;;4.52;65.77;100223.31;4994198;28;20133;-81
2022/04/30 01:46:19;;;;;;;9.15;5.40;;;;;;;4.46;66.39;100234.06;5009627;28;20490;-80
2022/04/30 01:48:45;;;;;;;8.17;4.57;;;;;;;4.32;66.59;100232.78;4993249;28;20058;-79
2022/04/30 01:51:14;;;;;;;9.30;5.63;;;;;;;4.45;66.67;100243.25;5010170;28;20046;-78
2022/04/30 01:53:42;;;;;;;11.15;4.88;;;;;;;4.47;66.30;100241.13;4994620;28;20038;-81
2022/04/30 01:56:08;;;;;;;10.05;5.45;;;;;;;4.37;66.30;100235.59;4993313;28;20042;-83
2022/04/30 01:58:51;;;;;;;7.68;4.88;;;;;;;4.40;66.09;100243.22;4993318;28;20050;-80
2022/04/30 02:01:17;;;;;;;8.17;4.50;;;;;;;4.26;67.00;100246.50;4993303;28;20125;-83
2022/04/30 02:03:44;;;;;;;6.97;4.75;;;;;;;4.20;67.15;100245.59;4994845;28;20574;-80
2022/04/30 02:06:10;;;;;;;8.60;4.95;;;;;;;4.28;66.89;100255.19;4995959;28;20077;-80
2022/04/30 02:08:36;;;;;;;9.75;5.38;;;;;;;4.34;66.75;100254.19;4994418;28;20137;-80
2022/04/30 02:11:04;;;;;;;12.85;5.57;;;;;;;4.40;66.35;100251.34;4977453;28;20045;-79
2022/04/30 02:13:32;;;;;;;;;;;;;;;4.37;66.21;100264.50;4994393;28;20050;-83
2022/04/30 02:16:00;;;;;;;7.75;5.30;;;;;;;4.37;66.42;100254.53;4994096;28;19982;-80
2022/04/30 02:18:27;;;;;;;7.63;5.07;;;;;;;4.38;66.14;100260.75;4993937;28;20125;-79
2022/04/30 02:20:56;;;;;;;10.05;5.35;;;;;;;4.24;66.46;100235.94;4994098;28;20125;-80
2022/04/30 02:23:23;;;;;;;8.93;5.28;;;;;;;4.33;66.29;100258.78;4993604;28;20062;-79
2022/04/30 02:25:51;;;;;;;8.77;5.13;;;;;;;4.36;66.05;100261.00;4993561;28;20133;-79
2022/04/30 02:28:17;;;;;;;15.20;5.75;;;;;;;4.33;66.41;100266.09;4993958;28;20042;-83
2022/04/30 02:30:44;;;;;;;10.80;5.75;;;;;;;4.30;66.46;100259.28;4993673;28;20065;-80
2022/04/30 02:33:12;;;;;;;12.80;5.13;;;;;;;4.18;66.49;100259.38;4992695;28;20057;-84
2022/04/30 02:35:44;;;;;;;12.40;5.68;;;;;;;4.20;66.72;100268.06;4993735;28;20054;-80
2022/04/30 02:38:11;;;;;;;14.75;5.68;;;;;;;4.18;66.86;100264.81;4995121;28;20041;-82
2022/04/30 02:40:39;;;;;;;10.52;5.20;;;;;;;4.04;66.80;100257.25;4994016;28;20057;-80
2022/04/30 02:43:10;;;;;;;8.85;5.05;;;;;;;4.05;67.02;100267.84;4994290;28;20537;-83
2022/04/30 02:45:38;;;;;;;11.50;5.28;;;;;;;4.03;66.97;100269.16;4992180;28;20092;-80
2022/04/30 02:48:06;;;;;;;9.70;4.97;;;;;;;4.01;66.82;100255.88;4993106;28;20034;-83
2022/04/30 02:50:34;;;;;;;8.30;5.25;;;;;;;3.98;67.18;100278.81;4993230;28;20070;-80
2022/04/30 02:53:01;;;;;;;8.35;5.13;;;;;;;4.06;67.23;100272.19;4994214;28;20046;-79
2022/04/30 02:55:27;;;;;;;8.35;5.57;;;;;;;4.02;66.95;100284.56;4993010;28;20556;-82
2022/04/30 03:00:42;;;;;;;15.07;5.53;;;;;;;3.96;67.70;100280.94;4991722;28;20070;-82
2022/04/30 03:06:17;;;;;;;9.32;4.60;;;;;;;3.96;67.43;100296.38;4970980;28;20599;-82
2022/04/30 03:08:47;;;;;;;5.13;3.60;;;;;;;3.89;67.05;100287.59;4971145;28;20051;-79
2022/04/30 03:11:13;;;;;;;11.43;5.47;;;;;;;3.94;67.16;100288.50;4971252;28;20053;-80
2022/04/30 03:13:40;;;;;;;8.77;5.50;;;;;;;3.97;67.29;100298.84;4955069;28;20041;-81
2022/04/30 03:21:41;;;;;;;7.57;4.97;;;;;;;4.24;65.74;100293.59;4936198;29;20039;-79
2022/04/30 03:24:09;;;;;;;11.88;5.43;;;;;;;4.47;65.21;100299.88;4951697;29;20127;-82
2022/04/30 03:26:36;;;;;;;9.80;4.68;;;;;;;4.43;64.36;100304.94;4952200;29;20069;-79
2022/04/30 03:29:06;;;;;;;6.68;3.92;;;;;;;4.50;63.71;100293.94;4953799;29;20061;-82
2022/04/30 03:31:33;;;;;;;7.95;3.95;;;;;;;4.54;63.08;100313.25;4937395;29;20066;-79
2022/04/30 03:33:59;;;;;;;10.98;3.67;;;;;;;4.38;62.66;100302.19;4951860;29;20133;-79
2022/04/30 03:36:26;;;;;;;6.13;4.20;;;;;;;4.48;62.95;100299.63;4951636;29;20051;-83
2022/04/30 03:38:53;;;;;;;5.47;3.63;;;;;;;4.66;62.16;100314.75;4951757;29;20050;-79
2022/04/30 03:41:19;;;;;;;6.32;3.70;;;;;;;4.53;62.36;100317.00;4952099;29;20039;-80
2022/04/30 03:43:45;;;;;;;6.78;3.80;;;;;;;4.64;62.37;100319.63;4967058;28;20089;-83
2022/04/30 03:46:11;;;;;;;7.63;3.50;;;;;;;4.51;62.13;100289.38;4973323;28;20499;-80
2022/04/30 03:48:38;;;;;;;5.63;3.50;;;;;;;4.47;62.16;100311.53;4975291;28;20035;-83
2022/04/30 03:51:05;;;;;;;9.02;3.70;;;;;;;4.53;62.45;100322.44;4973575;28;20094;-80
2022/04/30 03:53:32;;;;;;;13.23;4.05;;;;;;;4.43;61.86;100307.66;4976991;28;20043;-79
2022/04/30 03:56:00;;;;;;;5.93;3.30;;;;;;;4.57;62.07;100319.00;4976973;28;20089;-81
2022/04/30 03:58:27;;;;;;;12.02;3.42;;;;;;;4.74;61.46;100318.97;4976594;28;20050;-81
2022/04/30 04:00:54;;;;;;;6.60;2.88;;;;;;;4.82;60.03;100328.53;4977331;28;20478;-80
2022/04/30 04:03:23;;;;;;;4.65;2.75;;;;;;;4.67;60.44;100302.06;4977052;28;20516;-80
2022/04/30 04:05:53;;;;;;;8.25;3.40;;;;;;;4.83;60.43;100322.03;4976525;28;20046;-78
2022/04/30 04:08:21;;;;;;;3.58;2.60;;;;;;;4.52;60.40;100310.78;4977671;28;20074;-80
2022/04/30 04:10:48;;;;;;;6.70;3.58;;;;;;;4.68;60.88;100325.38;4978833;28;20058;-80
2022/04/30 04:18:58;;;;;;;5.05;3.13;;;;;;;4.91;59.83;100335.16;4977254;28;20113;-81
2022/04/30 04:21:24;;;;;;;9.98;3.65;;;;;;;4.83;59.54;100336.41;4978005;28;20464;-80
2022/04/30 04:26:36;;;;;;;11.15;3.65;;;;;;;5.05;59.33;100352.69;4978342;28;20058;-82
2022/04/30 04:29:05;;;;;;;4.85;3.33;;;;;;;5.03;59.34;100348.59;4977628;28;20039;-81
2022/04/30 04:31:32;;;;;;;12.02;4.07;;;;;;;5.13;59.30;100340.59;4977757;28;20038;-82
2022/04/30 04:33:59;;;;;;;7.93;3.63;;;;;;;4.93;59.28;100330.28;4975611;28;20418;-80
2022/04/30 04:36:30;;;;;;;6.18;3.40;;;;;;;5.13;59.35;100349.56;4975194;28;20550;-82
2022/04/30 04:38:57;;;;;;;5.43;3.70;;;;;;;5.40;58.83;100337.97;4975802;28;20042;-80
2022/04/30 04:41:23;;;;;;;6.93;3.08;;;;;;;5.48;58.17;100328.53;4976905;28;20432;-82
2022/04/30 04:43:50;;;;;;;5.50;3.70;;;;;;;5.56;57.58;100349.78;4976806;28;20070;-80
2022/04/30 04:46:17;;;;;;;;;;;;;;;5.69;56.94;100351.28;4979283;28;20057;-80
2022/04/30 04:48:44;;;;;;;4.60;3.23;;;;;;;5.68;56.90;100347.75;4979101;28;19922;-81
2022/04/30 04:51:11;;;;;;;6.40;3.30;;;;;;;5.58;57.05;100331.38;4977881;28;20078;-80
2022/04/30 04:53:39;;;;;;;8.50;3.38;;;;;;;5.87;56.45;100349.03;4976566;28;20054;-82
2022/04/30 04:56:06;;;;;;;;;;;;;;;5.82;56.30;100346.25;4975856;28;20046;-80
2022/04/30 04:58:32;;;;;;;;;;;;;;;5.88;56.11;100356.09;4976218;28;19976;-81
2022/04/30 05:00:58;;;;;;;11.60;3.67;;;;;;;5.91;56.03;100362.09;4975655;28;19922;-79
2022/04/30 05:03:24;;;;;;;7.57;3.60;;;;;;;5.75;55.90;100361.94;4958408;28;20047;-81
2022/04/30 05:05:51;;;;;;;11.80;3.70;;;;;;;5.78;55.75;100364.13;4957838;28;20520;-82
2022/04/30 05:08:17;;;;;;;10.05;3.45;;;;;;;5.79;55.82;100362.22;4975425;28;20049;-81
2022/04/30 05:10:43;;;;;;;7.90;3.70;;;;;;;5.77;55.64;100353.53;4975345;28;20050;-82
2022/04/30 05:13:13;;;;;;;9.23;3.70;;;;;;;5.99;55.23;100354.31;4974516;28;20049;-81
2022/04/30 05:15:39;;;;;;;10.25;4.10;;;;;;;6.19;54.83;100361.00;4976447;28;20177;-83
2022/04/30 05:18:07;;;;;;;5.95;3.70;;;;;;;6.20;53.85;100360.78;4988229;28;20101;-83
2022/04/30 05:20:33;;;;;;;7.00;3.33;;;;;;;6.10;53.85;100363.41;4994218;28;20415;-77
2022/04/30 05:23:00;;;;;;;5.95;3.60;;;;;;;5.93;54.04;100354.53;4990864;28;20030;-75
2022/04/30 05:25:29;;;;;;;6.75;3.28;;;;;;;5.84;54.35;100373.16;4974659;28;20201;-76
2022/04/30 05:27:56;;;;;;;22.48;4.47;;;;;;;6.10;54.47;100364.22;4991581;28;20072;-77
2022/04/30 05:30:23;;;;;;;7.03;3.97;;;;;;;6.26;53.97;100364.34;4993291;28;20057;-76
2022/04/30 05:32:50;;;;;;;13.35;3.65;;;;;;;6.37;54.07;100371.50;4992540;28;20049;-75
2022/04/30 05:35:18;;;;;;;5.68;3.20;;;;;;;6.44;52.60;100363.13;5007414;28;20074;-76
2022/04/30 05:37:44;;;;;;;13.15;3.65;;;;;;;6.49;52.93;100366.72;4973745;28;20042;-77
2022/04/30 05:40:11;;;;;;;10.23;3.83;;;;;;;6.66;53.05;100360.31;4988935;28;20081;-78
2022/04/30 05:42:37;;;;;;;29.77;4.82;;;;;;;6.96;53.03;100365.94;4989824;28;20181;-75
2022/04/30 05:45:04;;;;;;;13.82;3.92;;;;;;;6.79;50.70;100371.53;4988426;28;20261;-76
2022/04/30 05:47:33;;;;;;;9.30;3.90;;;;;;;6.86;50.86;100370.50;4988601;28;20117;-76
2022/04/30 05:50:01;;;;;;;16.40;3.50;;;;;;;6.71;51.68;100363.88;4989305;28;20049;-77
2022/04/30 05:52:27;;;;;;;8.63;3.77;;;;;;;6.85;50.41;100364.22;4987665;28;20034;-77
2022/04/30 05:54:54;;;;;;;6.15;3.20;;;;;;;6.58;50.00;100339.88;4988688;28;20137;-77
2022/04/30 05:57:21;;;;;;;;;;;;;;;6.82;50.18;100372.91;4971788;28;20057;-76
2022/04/30 05:59:48;;;;;;;13.30;3.47;;;;;;;6.91;48.96;100362.38;4971010;28;19921;-77
2022/04/30 06:02:14;;;;;;;15.43;3.95;;;;;;;7.13;49.40;100371.19;4988163;28;20050;-76
2022/04/30 06:04:42;;;;;;;6.40;3.50;;;;;;;6.82;50.39;100367.47;4988160;28;20133;-76
2022/04/30 06:07:08;;;;;;;7.47;3.63;;;;;;;6.66;49.87;100374.72;4970534;28;20096;-76
2022/04/30 06:09:35;;;;;;;12.80;4.00;;;;;;;6.58;50.28;100378.72;4987888;28;20061;-76
2022/04/30 06:12:01;;;;;;;4.20;2.93;;;;;;;6.46;49.82;100378.09;4989188;28;20129;-75
2022/04/30 06:14:28;;;;;;;16.52;4.10;;;;;;;6.55;50.87;100383.84;4989062;28;20038;-77
2022/04/30 06:16:58;;;;;;;8.98;3.78;;;;;;;6.41;49.99;100369.91;4987140;28;20089;-77
2022/04/30 06:19:27;;;;;;;12.05;3.95;;;;;;;6.62;50.08;100376.28;4987580;28;20039;-75
2022/04/30 06:21:53;;;;;;;17.77;5.15;;;;;;;6.55;49.45;100381.13;4988672;28;20053;-78
2022/04/30 06:24:19;;;;;;;12.43;5.45;;;;;;;6.78;49.52;100380.75;4987998;28;20042;-76
2022/04/30 06:26:46;;;;;;;9.85;3.78;;;;;;;6.89;48.65;100376.22;4986528;28;20050;-75
2022/04/30 06:29:13;;;;;;;11.82;3.90;;;;;;;6.80;48.46;100372.38;4984759;28;20038;-77
2022/04/30 06:31:40;;;;;;;11.85;3.95;;;;;;;6.97;47.83;100370.28;4985457;28;20115;-78
2022/04/30 06:34:08;;;;;;;14.30;3.95;;;;;;;6.96;46.24;100370.56;4968943;28;20043;-77
2022/04/30 06:36:35;;;;;;;20.00;5.00;;;;;;;6.86;45.91;100373.22;4993067;28;20503;-81
2022/04/30 06:39:01;;;;;;;27.10;4.17;;;;;;;6.71;45.31;100379.34;4992185;28;20042;-79
2022/04/30 06:41:27;;;;;;;14.68;5.60;;;;;;;6.65;44.45;100364.91;4993507;28;20332;-76
2022/04/30 06:43:53;;;;;;;16.00;4.17;;;;;;;6.93;43.24;100371.09;4991343;28;20109;-76
2022/04/30 06:46:20;;;;;;;10.30;4.38;;;;;;;7.16;43.01;100370.66;4992080;28;20393;-75
2022/04/30 06:48:47;;;;;;;;;;;;;;;7.38;41.72;100373.19;4974976;28;20507;-75
2022/04/30 06:51:14;;;;;;;7.82;2.75;;;;;;;7.46;38.68;100377.34;4974869;28;19934;-77
2022/04/30 06:59:14;;;;;;;7.53;2.63;;;;;;;7.65;37.63;100366.75;5003540;28;20411;-75
2022/04/30 07:04:39;;;;;;;8.43;3.00;;;;;;;7.70;38.62;100362.16;5009413;28;20353;-76
2022/04/30 07:07:06;;;;;;;11.05;2.78;;;;;;;7.89;38.15;100367.94;5008738;28;20064;-76
2022/04/30 07:09:32;;;;;;;8.13;3.17;;;;;;;7.94;36.55;100372.56;4992493;28;20239;-75
2022/04/30 07:12:00;;;;;;;15.67;3.47;;;;;;;7.92;37.69;100361.13;5008031;28;20098;-76
2022/04/30 07:14:27;;;;;;;6.95;2.83;;;;;;;7.82;37.68;100372.81;4956653;28;20045;-75
2022/04/30 07:16:56;;;;;;;6.78;3.20;;;;;;;7.44;38.09;100376.78;5005197;28;20112;-76
2022/04/30 07:19:47;;;;;;;14.52;3.10;;;;;;;7.12;37.90;100375.00;4988672;28;20104;-77
2022/04/30 07:22:36;;;;;;;11.82;2.95;;;;;;;7.03;38.34;100366.53;5005012;28;20376;-77
2022/04/30 07:25:27;;;;;;;9.82;3.78;;;;;;;6.90;39.80;100385.19;5004451;28;20060;-75
2022/04/30 07:27:53;;;;;;;8.83;3.07;;;;;;;6.94;39.88;100381.69;4988604;28;20506;-76
2022/04/30 07:30:21;;;;;;;10.60;3.15;;;;;;;6.81;39.31;100374.81;4989911;28;20049;-75
2022/04/30 07:33:09;;;;;;;13.40;3.00;;;;;;;6.97;39.79;100386.59;4990332;28;20082;-76
2022/04/30 07:35:40;;;;;;;17.98;3.88;;;;;;;7.07;39.55;100372.25;4976352;28;20042;-76
2022/04/30 07:38:06;;;;;;;13.35;3.97;;;;;;;7.46;39.12;100375.44;5008679;28;20062;-76
2022/04/30 07:40:35;;;;;;;7.05;2.13;;;;;;;7.44;34.56;100377.59;4998216;28;20077;-76
2022/04/30 07:43:04;;;;;;;15.02;2.55;;;;;;;7.65;34.48;100381.22;4986744;28;20070;-76
2022/04/30 07:45:32;;;;;;;5.65;1.83;;;;;;;7.76;32.34;100361.09;4985414;28;20042;-75
2022/04/30 07:48:02;;;;;;;3.38;1.50;;;;;;;7.93;32.25;100362.75;4990750;28;20046;-75
2022/04/30 07:50:36;;;;;;;5.18;2.00;;;;;;;8.19;32.55;100363.63;4990530;28;20578;-75
2022/04/30 07:53:06;;;;;;;4.72;1.75;;;;;;;8.47;31.93;100371.25;4975045;28;20129;-76
2022/04/30 07:55:33;;;;;;;8.45;1.83;;;;;;;8.14;31.45;100369.03;4992006;28;20048;-76
2022/04/30 07:58:02;;;;;;;2.97;1.60;;;;;;;8.00;32.90;100371.47;5006380;28;20085;-75
2022/04/30 08:00:29;;;;;;;13.75;2.65;;;;;;;7.94;33.42;100365.19;4973312;28;20049;-76
2022/04/30 08:02:56;;;;;;;13.40;2.13;;;;;;;8.08;33.37;100370.97;4988106;28;20085;-75
2022/04/30 08:05:24;;;;;;;13.70;3.13;;;;;;;8.48;33.15;100361.22;4988011;28;20455;-75
2022/04/30 08:07:51;;;;;;;9.85;1.98;;;;;;;8.32;32.68;100376.69;4989567;28;20046;-75
2022/04/30 08:10:23;;;;;;;14.48;2.65;;;;;;;8.27;31.89;100375.88;4987546;28;20495;-75
2022/04/30 08:12:56;;;;;;;6.65;2.22;;;;;;;7.96;32.82;100379.38;4987542;28;20050;-75
2022/04/30 08:15:25;;;;;;;8.85;2.10;;;;;;;8.04;33.49;100356.22;4988466;28;20053;-78
2022/04/30 08:17:53;;;;;;;8.73;1.73;;;;;;;8.17;33.57;100363.88;4986744;28;20042;-75
2022/04/30 08:20:19;;;;;;;2.83;1.58;;;;;;;8.26;33.82;100368.78;4970307;28;20034;-77
2022/04/30 08:23:03;;;;;;;4.95;1.77;;;;;;;8.20;33.38;100368.78;4986735;28;20266;-77
2022/04/30 08:25:33;;;;;;;6.32;1.80;;;;;;;8.36;32.18;100364.16;4987372;28;20038;-75
2022/04/30 08:27:59;;;;;;;4.28;1.85;;;;;;;8.77;32.26;100366.06;5002460;28;20140;-75
2022/04/30 08:30:27;;;;;;;10.25;2.92;;;;;;;8.82;31.45;100366.88;4987039;28;20137;-77
2022/04/30 08:32:53;;;;;;;8.15;2.22;;;;;;;8.61;32.10;100357.94;4986488;28;20046;-80
2022/04/30 08:35:20;;;;;;;11.20;2.80;;;;;;;8.83;32.13;100363.06;4966007;28;20043;-79
2022/04/30 08:38:06;;;;;;;13.98;2.53;;;;;;;8.75;31.43;100350.00;4987260;28;20133;-78
2022/04/30 08:40:35;;;;;;;10.33;2.43;;;;;;;8.62;32.62;100359.56;4995938;28;20529;-78
2022/04/30 08:43:16;;;;;;;19.98;3.85;;;;;;;8.61;32.16;100360.66;4996864;28;20051;-78
2022/04/30 08:45:45;;;;;;;8.75;2.35;;;;;;;8.37;30.38;100360.34;4995152;28;20046;-77
2022/04/30 08:48:17;;;;;;;12.95;2.88;;;;;;;8.32;30.49;100357.63;4995559;28;20034;-78
2022/04/30 08:50:47;;;;;;;9.45;2.42;;;;;;;8.36;31.43;100361.44;4993655;28;20523;-79
2022/04/30 08:53:14;;;;;;;4.80;2.05;;;;;;;8.24;31.26;100371.78;4993114;28;20035;-79
2022/04/30 08:55:40;;;;;;;;;;;;;;;8.33;31.34;100369.34;4991357;28;20046;-80
2022/04/30 08:58:09;;;;;;;8.23;2.25;;;;;;;8.45;32.04;100361.75;4989307;28;20738;-78
2022/04/30 09:00:47;;;;;;;6.53;1.90;;;;;;;8.38;30.63;100347.59;4988623;28;20093;-79
2022/04/30 09:03:20;;;;;;;5.03;2.33;;;;;;;8.58;31.02;100352.22;4988126;28;20042;-79
2022/04/30 09:05:48;;;;;;;6.05;2.60;;;;;;;8.76;30.31;100353.53;4991472;28;20041;-79
2022/04/30 09:08:17;;;;;;;22.13;5.43;;;;;;;8.52;30.22;100359.56;4992453;28;20514;-78
2022/04/30 09:10:50;;;;;;;6.80;1.67;;;;;;;8.44;30.35;100346.47;4991239;28;20042;-77
2022/04/30 09:13:18;;;;;;;16.00;2.40;;;;;;;8.36;31.06;100347.00;4992256;28;20038;-77
2022/04/30 09:15:47;;;;;;;14.55;4.10;;;;;;;8.35;31.26;100351.63;4991292;28;20042;-76
2022/04/30 09:18:14;;;;;;;10.07;4.07;;;;;;;8.39;31.67;100338.31;4990682;28;20050;-77
2022/04/30 09:20:49;;;;;;;5.18;2.50;;;;;;;8.29;30.83;100354.63;4991508;28;20061;-78
2022/04/30 09:23:34;;;;;;;4.57;2.05;;;;;;;8.29;30.73;100347.28;4989607;28;20290;-79
2022/04/30 09:26:06;;;;;;;6.18;2.00;;;;;;;8.40;31.65;100361.75;4971497;28;20121;-75
2022/04/30 09:28:37;;;;;;;6.85;2.72;;;;;;;8.58;31.53;100333.94;4990053;28;20050;-78
2022/04/30 09:31:16;;;;;;;16.20;4.57;;;;;;;8.89;31.05;100329.25;4991036;28;20050;-77
2022/04/30 09:33:57;;;;;;;45.90;11.35;;;;;;;9.16;31.32;100328.88;4992368;28;20042;-77
2022/04/30 09:39:17;;;;;;;3.25;2.03;;;;;;;9.10;29.97;100337.34;4989745;28;20459;-79
2022/04/30 09:41:46;;;;;;;10.60;2.40;;;;;;;9.31;30.58;100338.09;4989957;28;20052;-79
2022/04/30 09:44:16;;;;;;;4.82;1.95;;;;;;;8.94;27.81;100334.69;4987522;28;20124;-79
2022/04/30 09:46:42;;;;;;;5.40;2.50;;;;;;;9.09;28.75;100331.09;4983029;28;20073;-76
2022/04/30 09:54:42;;;;;;;8.27;2.10;;;;;;;9.23;29.42;100325.03;4992084;28;20042;-79
2022/04/30 09:57:14;;;;;;;15.65;2.45;;;;;;;9.47;29.60;100331.50;4991814;28;20054;-78
2022/04/30 09:59:42;;;;;;;8.52;2.30;;;;;;;9.63;28.84;100326.75;4994642;28;20507;-82
2022/04/30 10:02:10;;;;;;;16.35;3.03;;;;;;;9.69;28.98;100325.63;4993181;28;20411;-84
2022/04/30 10:04:37;;;;;;;8.23;2.30;;;;;;;9.67;28.39;100346.09;5014122;28;20078;-77
2022/04/30 10:07:06;;;;;;;11.65;2.28;;;;;;;9.27;28.25;100337.00;5012248;28;20411;-77
2022/04/30 10:09:37;;;;;;;9.10;1.80;;;;;;;8.83;29.06;100326.78;5011213;28;20071;-82
2022/04/30 10:12:24;;;;;;;12.68;2.90;;;;;;;9.26;29.80;100338.94;4986692;28;20567;-78
2022/04/30 10:14:54;;;;;;;5.28;2.25;;;;;;;9.75;29.50;100332.69;4991401;28;20539;-78
2022/04/30 10:17:29;;;;;;;16.23;3.08;;;;;;;9.89;28.43;100320.03;4992125;28;20058;-78
2022/04/30 10:20:12;;;;;;;4.55;1.80;;;;;;;10.11;28.03;100319.59;4993292;28;20042;-78
2022/04/30 10:22:50;;;;;;;7.75;2.60;;;;;;;10.30;28.40;100327.97;4992936;28;20387;-78
2022/04/30 10:25:16;;;;;;;8.50;1.70;;;;;;;10.13;27.87;100330.22;4991094;28;20046;-78
2022/04/30 10:27:47;;;;;;;7.37;2.00;;;;;;;10.03;27.95;100322.09;4991441;28;20360;-78
2022/04/30 10:30:34;;;;;;;11.35;2.38;;;;;;;10.30;28.71;100329.88;4991017;28;20050;-78
2022/04/30 10:33:02;;;;;;;5.90;2.63;;;;;;;10.15;27.64;100319.84;4991283;28;20042;-79
2022/04/30 10:35:33;;;;;;;6.03;1.98;;;;;;;9.61;28.14;100321.56;4990889;28;20046;-78
2022/04/30 10:38:32;;;;;;;8.45;2.55;;;;;;;9.45;28.94;100330.13;4991181;28;20050;-80
2022/04/30 10:41:00;;;;;;;16.17;3.67;;;;;;;9.11;30.11;100312.53;4970758;28;20058;-77
2022/04/30 10:43:32;;;;;;;14.18;2.30;;;;;;;9.16;29.04;100325.34;4975273;28;20054;-77
2022/04/30 10:45:59;;;;;;;5.50;2.38;;;;;;;9.36;28.93;100338.06;4974299;28;20133;-76
2022/04/30 10:48:26;;;;;;;10.48;2.63;;;;;;;9.44;30.03;100333.94;4975585;28;20047;-77
2022/04/30 10:51:10;;;;;;;5.72;2.30;;;;;;;9.28;29.85;100328.56;4974062;28;20097;-77
2022/04/30 10:53:46;;;;;;;6.95;2.20;;;;;;;8.81;29.64;100329.81;4973733;28;20050;-78
2022/04/30 10:56:15;;;;;;;7.95;1.80;;;;;;;8.81;30.45;100329.81;4974212;28;20047;-78
2022/04/30 10:58:41;;;;;;;7.18;2.83;;;;;;;9.23;30.02;100320.38;4975696;28;20035;-77
2022/04/30 11:01:13;;;;;;;11.23;3.25;;;;;;;9.79;29.64;100313.81;4975411;28;20041;-78
2022/04/30 11:03:50;;;;;;;6.53;2.55;;;;;;;10.15;29.39;100299.91;4974339;28;20457;-79
2022/04/30 11:06:21;;;;;;;6.65;2.50;;;;;;;10.33;29.61;100308.25;4974360;28;20034;-76
2022/04/30 11:09:00;;;;;;;9.27;2.90;;;;;;;10.07;28.11;100302.16;4992185;28;20523;-77
2022/04/30 11:11:31;;;;;;;11.38;2.83;;;;;;;9.80;28.25;100301.78;4990831;28;20073;-78
2022/04/30 11:14:09;;;;;;;4.55;2.97;;;;;;;9.50;28.92;100302.78;4991630;28;20045;-78
2022/04/30 11:16:49;;;;;;;11.23;2.92;;;;;;;9.23;29.38;100312.19;4991453;28;20553;-78
2022/04/30 11:19:21;;;;;;;21.02;3.78;;;;;;;9.34;29.91;100313.00;4982157;28;20130;-77
2022/04/30 11:21:53;;;;;;;17.73;3.28;;;;;;;9.10;29.33;100319.06;4986956;28;20053;-77
2022/04/30 11:24:28;;;;;;;6.28;2.10;;;;;;;8.87;29.47;100304.19;4989943;28;20042;-78
2022/04/30 11:27:04;;;;;;;7.60;2.63;;;;;;;8.90;30.56;100311.78;5005964;28;20069;-76
2022/04/30 11:29:31;;;;;;;10.68;3.10;;;;;;;9.08;30.13;100306.81;4989460;28;20046;-77
2022/04/30 11:31:59;;;;;;;8.00;2.50;;;;;;;9.21;28.99;100314.41;4997377;28;20042;-77
2022/04/30 11:34:26;;;;;;;6.47;2.17;;;;;;;9.52;28.90;100308.78;4956759;28;20038;-77
2022/04/30 11:36:58;;;;;;;15.37;2.43;;;;;;;9.65;28.88;100311.72;4990003;28;20050;-77
2022/04/30 11:39:25;;;;;;;7.93;2.40;;;;;;;9.56;28.63;100293.47;4989991;28;20286;-76
2022/04/30 11:41:58;;;;;;;10.10;2.47;;;;;;;9.25;28.94;100307.28;4989546;28;20042;-77
2022/04/30 11:44:27;;;;;;;7.88;2.15;;;;;;;9.23;29.31;100306.75;5005005;28;20046;-77
2022/04/30 11:46:56;;;;;;;26.30;2.70;;;;;;;9.59;29.74;100304.66;4992435;28;20419;-77
2022/04/30 11:49:24;;;;;;;16.05;2.85;;;;;;;9.31;29.61;100311.63;5006262;28;20034;-76
2022/04/30 11:51:54;;;;;;;20.75;3.28;;;;;;;9.08;30.13;100306.81;4990694;28;20455;-77
2022/04/30 11:54:23;;;;;;;35.75;4.88;;;;;;;9.39;30.69;100296.59;4989619;28;20134;-78
2022/04/30 11:56:51;;;;;;;17.10;3.05;;;;;;;9.39;30.39;100302.84;4987408;28;20131;-76
2022/04/30 11:59:31;;;;;;;13.32;2.97;;;;;;;9.43;30.31;100308.56;4987192;28;20077;-77
2022/04/30 12:02:09;;;;;;;13.50;2.60;;;;;;;9.54;29.87;100306.63;4987086;28;20042;-76
2022/04/30 12:04:41;;;;;;;17.10;3.30;;;;;;;9.59;29.99;100307.38;4986832;28;20073;-79
2022/04/30 12:07:12;;;;;;;45.42;4.65;;;;;;;9.57;30.50;100298.69;4986429;28;20074;-77
2022/04/30 12:09:45;;;;;;;9.88;2.72;;;;;;;9.62;30.41;100300.56;4987353;28;20577;-77
2022/04/30 12:12:19;;;;;;;14.63;2.78;;;;;;;9.68;30.17;100298.59;4986006;28;20049;-77
2022/04/30 12:14:53;;;;;;;6.43;2.78;;;;;;;9.49;29.69;100298.44;4989872;28;20038;-76
2022/04/30 12:17:28;;;;;;;11.80;2.55;;;;;;;9.71;30.08;100300.78;4990317;28;20050;-78
2022/04/30 12:26:14;;;;;;;9.52;3.83;;;;;;;9.77;29.28;100286.00;4989810;28;20043;-76
2022/04/30 12:28:52;;;;;;;11.75;4.20;;;;;;;9.81;29.50;100290.59;4988009;28;20042;-76
2022/04/30 12:31:19;;;;;;;11.85;4.18;;;;;;;9.82;29.42;100283.22;4988177;28;20042;-79